Time;durP1;ratioP1;P1;durP2;ratioP2;P2;SDS_P1;SDS_P2;PMS_P1;PMS_P2;Temp;Humidity;BMP_temperature;BMP_pressure;BME280_temperature;BME280_humidity;BME280_pressure;Samples;Min_cycle;Max_cycle;Signal;HPM_P1;HPM_P2
2023/01/24 00:00:29;;;;;;;23.05;17.80;;;;;;;2.24;100.00;103754.28;5252605;28;20489;-81
2023/01/24 00:03:01;;;;;;;23.73;17.83;;;;;;;2.24;100.00;103755.19;5253755;28;20032;-82
2023/01/24 00:05:35;;;;;;;20.10;16.35;;;;;;;2.22;100.00;103754.28;5254823;28;20410;-82
2023/01/24 00:08:06;;;;;;;22.05;17.88;;;;;;;2.20;100.00;103748.19;5255294;28;23731;-82
2023/01/24 00:10:38;;;;;;;22.90;16.63;;;;;;;2.14;100.00;103763.16;5256407;28;20033;-82
2023/01/24 00:13:13;;;;;;;23.65;18.38;;;;;;;2.21;100.00;103756.94;5258103;28;20021;-82
2023/01/24 00:15:44;;;;;;;21.35;16.42;;;;;;;2.21;100.00;103751.69;5256283;28;20029;-81
2023/01/24 00:18:16;;;;;;;22.27;17.33;;;;;;;2.14;100.00;103757.91;5241717;28;20024;-81
2023/01/24 00:20:47;;;;;;;23.88;17.10;;;;;;;2.20;100.00;103750.81;5260437;28;20034;-81
2023/01/24 00:23:18;;;;;;;21.48;17.00;;;;;;;2.22;100.00;103754.28;5254360;28;20049;-82
2023/01/24 00:25:50;;;;;;;23.10;17.52;;;;;;;2.20;100.00;103749.94;5239342;28;40197;-81
2023/01/24 00:28:21;;;;;;;21.58;16.88;;;;;;;2.20;100.00;103748.19;5258906;28;20075;-82
2023/01/24 00:30:52;;;;;;;22.13;16.67;;;;;;;2.17;100.00;103749.97;5257208;28;20053;-81
2023/01/24 00:33:24;;;;;;;21.02;15.95;;;;;;;2.21;100.00;103744.66;5257359;28;20032;-82
2023/01/24 00:35:55;;;;;;;21.38;17.05;;;;;;;2.17;100.00;103745.56;5242677;28;20172;-81
2023/01/24 00:38:28;;;;;;;21.92;16.50;;;;;;;2.10;100.00;103743.03;5240477;28;20124;-81
2023/01/24 00:41:00;;;;;;;21.38;16.60;;;;;;;2.14;100.00;103729.81;5255713;28;20489;-81
2023/01/24 00:43:31;;;;;;;24.20;17.73;;;;;;;2.13;100.00;103729.84;5254650;28;20105;-81
2023/01/24 00:46:07;;;;;;;22.50;17.52;;;;;;;2.14;100.00;103723.66;5255387;28;20029;-81
2023/01/24 00:48:38;;;;;;;22.48;17.75;;;;;;;2.16;100.00;103721.91;5255759;28;20021;-81
2023/01/24 00:51:09;;;;;;;23.33;17.77;;;;;;;2.12;100.00;103728.94;5255505;28;20079;-81
2023/01/24 00:53:41;;;;;;;21.90;16.63;;;;;;;2.12;100.00;103722.81;5257310;28;20063;-82
2023/01/24 00:56:12;;;;;;;23.38;17.33;;;;;;;2.12;100.00;103735.97;5255352;28;20030;-81
2023/01/24 00:58:43;;;;;;;24.67;17.98;;;;;;;2.08;100.00;103729.88;5255948;28;20380;-81
2023/01/24 01:01:15;;;;;;;22.38;16.45;;;;;;;2.10;100.00;103736.00;5256272;28;20057;-81
2023/01/24 01:03:46;;;;;;;23.42;18.08;;;;;;;2.06;100.00;103724.63;5256131;28;20057;-81
2023/01/24 01:06:17;;;;;;;20.85;16.58;;;;;;;2.08;100.00;103722.84;5256294;28;20246;-81
2023/01/24 01:08:49;;;;;;;23.05;17.20;;;;;;;2.05;100.00;103728.16;5226669;28;27401;-81
2023/01/24 01:11:20;;;;;;;20.95;15.90;;;;;;;2.08;100.00;103725.47;5256207;28;20017;-81
2023/01/24 01:13:54;;;;;;;22.13;17.08;;;;;;;2.10;100.00;103724.59;5255513;28;20040;-81
2023/01/24 01:16:26;;;;;;;21.55;16.17;;;;;;;1.96;100.00;103719.47;5238306;28;20022;-81
2023/01/24 01:18:57;;;;;;;21.40;16.15;;;;;;;2.01;100.00;103718.53;5254591;28;20045;-81
2023/01/24 01:21:28;;;;;;;21.45;15.27;;;;;;;2.04;100.00;103713.25;5256036;28;20390;-81
2023/01/24 01:24:00;;;;;;;22.52;17.05;;;;;;;1.94;100.00;103714.22;5242276;28;20030;-80
2023/01/24 01:26:31;;;;;;;19.15;15.30;;;;;;;1.97;100.00;103719.47;5254781;28;20087;-82
2023/01/24 01:29:03;;;;;;;19.85;15.50;;;;;;;1.95;100.00;103710.72;5256158;28;20132;-80
2023/01/24 01:31:35;;;;;;;21.13;16.00;;;;;;;1.95;100.00;103707.22;5255216;28;20025;-81
2023/01/24 01:34:06;;;;;;;20.73;15.52;;;;;;;1.99;100.00;103722.94;5256310;28;20021;-81
2023/01/24 01:36:38;;;;;;;19.48;15.10;;;;;;;1.94;100.00;103727.38;5254454;28;20030;-81
2023/01/24 01:39:09;;;;;;;19.30;14.98;;;;;;;1.97;100.00;103731.75;5257230;28;20045;-81
2023/01/24 01:41:41;;;;;;;20.30;15.20;;;;;;;1.99;100.00;103728.22;5256238;28;20160;-81
2023/01/24 01:44:37;;;;;;;20.35;15.80;;;;;;;2.03;100.00;103726.41;5256554;28;20083;-80
2023/01/24 01:47:20;;;;;;;20.23;15.77;;;;;;;2.04;100.00;103715.00;5253086;28;20029;-81
2023/01/24 01:50:24;;;;;;;21.00;15.45;;;;;;;2.04;100.00;103723.78;5255805;28;20025;-81
2023/01/24 01:52:56;;;;;;;18.85;14.40;;;;;;;1.99;100.00;103720.31;5255769;28;20124;-81
2023/01/24 01:55:33;;;;;;;21.98;16.50;;;;;;;2.00;100.00;103721.19;5256259;28;22084;-81
2023/01/24 01:58:06;;;;;;;20.67;15.60;;;;;;;2.05;100.00;103725.53;5252847;28;20053;-81
2023/01/24 02:00:38;;;;;;;20.20;16.13;;;;;;;1.98;100.00;103709.78;5254359;28;20021;-81
2023/01/24 02:06:48;;;;;;;22.08;16.67;;;;;;;2.12;100.00;103704.38;5259977;28;20077;-81
2023/01/24 02:09:29;;;;;;;19.50;15.27;;;;;;;2.07;100.00;103715.00;5217238;28;20027;-81
2023/01/24 02:12:04;;;;;;;22.20;16.45;;;;;;;2.05;100.00;103717.63;5255892;28;20070;-81
2023/01/24 02:17:30;;;;;;;22.65;16.85;;;;;;;2.08;100.00;103712.31;5258783;28;20033;-81
2023/01/24 02:20:13;;;;;;;21.20;15.85;;;;;;;2.10;100.00;103716.69;5260048;28;20033;-81
2023/01/24 02:23:14;;;;;;;21.30;17.25;;;;;;;2.11;100.00;103708.78;5258018;28;20042;-81
2023/01/24 02:25:52;;;;;;;20.33;15.32;;;;;;;2.09;100.00;103702.66;5246293;28;20041;-81
2023/01/24 02:28:23;;;;;;;22.95;17.48;;;;;;;2.09;100.00;103718.47;5241373;28;20029;-82
2023/01/24 02:30:57;;;;;;;23.67;17.80;;;;;;;2.07;100.00;103709.72;5258647;28;20091;-81
2023/01/24 02:33:30;;;;;;;24.48;17.20;;;;;;;2.08;100.00;103711.44;5261429;28;20021;-82
2023/01/24 02:36:20;;;;;;;23.50;18.27;;;;;;;2.07;100.00;103705.31;5244689;28;20136;-82
2023/01/24 02:39:00;;;;;;;23.10;17.40;;;;;;;2.07;100.00;103710.59;5257396;28;20080;-81
2023/01/24 02:41:38;;;;;;;23.67;17.15;;;;;;;2.05;100.00;103709.72;5256839;28;20092;-81
2023/01/24 02:44:16;;;;;;;23.00;17.60;;;;;;;2.06;100.00;103700.06;5258380;28;20025;-82
2023/01/24 02:46:47;;;;;;;24.17;17.83;;;;;;;2.06;100.00;103707.97;5257023;28;20604;-81
2023/01/24 02:49:19;;;;;;;25.35;19.55;;;;;;;2.02;100.00;103707.13;5258364;28;20038;-80
2023/01/24 02:54:40;;;;;;;23.65;17.67;;;;;;;2.04;100.00;103712.38;5256696;28;20034;-81
2023/01/24 03:00:01;;;;;;;24.73;18.15;;;;;;;2.03;100.00;103708.88;5256911;28;20026;-82
2023/01/24 03:02:33;;;;;;;22.88;18.38;;;;;;;1.98;100.00;103710.69;5246573;28;20032;-80
2023/01/24 03:05:05;;;;;;;23.25;17.55;;;;;;;2.00;100.00;103708.91;5257141;28;20462;-82
2023/01/24 03:07:44;;;;;;;24.60;18.15;;;;;;;1.99;100.00;103712.41;5256525;28;20084;-82
2023/01/24 03:10:17;;;;;;;22.92;17.80;;;;;;;1.97;100.00;103708.06;5256877;28;20135;-82
2023/01/24 03:35:29;;;;;;;26.45;18.42;;;;;;;1.90;100.00;103707.25;5257069;28;20366;-81
2023/01/24 03:40:52;;;;;;;25.88;18.90;;;;;;;1.89;100.00;103708.13;5256564;28;20033;-81
2023/01/24 03:43:23;;;;;;;26.40;19.35;;;;;;;1.88;100.00;103703.78;5257568;28;20052;-82
2023/01/24 03:45:54;;;;;;;24.55;18.75;;;;;;;1.86;100.00;103698.53;5256498;28;20072;-80
2023/01/24 03:48:33;;;;;;;25.50;17.80;;;;;;;1.88;100.00;103702.00;5258668;28;20021;-80
2023/01/24 03:53:55;;;;;;;23.83;17.58;;;;;;;1.86;100.00;103701.16;5269768;28;20072;-80
2023/01/24 03:56:26;;;;;;;26.35;18.65;;;;;;;1.83;100.00;103708.22;5259558;28;20068;-81
2023/01/24 03:58:58;;;;;;;23.67;17.75;;;;;;;1.82;100.00;103704.72;5256946;28;20152;-81
2023/01/24 04:01:29;;;;;;;24.33;18.33;;;;;;;1.83;100.00;103708.22;5256871;28;20025;-81
2023/01/24 04:04:00;;;;;;;24.70;18.80;;;;;;;1.83;100.00;103700.31;5255795;28;20056;-81
2023/01/24 04:06:32;;;;;;;24.58;18.92;;;;;;;1.83;100.00;103703.81;5257090;28;20121;-82
2023/01/24 04:09:03;;;;;;;25.58;18.25;;;;;;;1.79;100.00;103703.84;5248523;28;20029;-81
2023/01/24 04:11:34;;;;;;;24.88;18.23;;;;;;;1.75;100.00;103704.78;5256302;28;20048;-81
2023/01/24 04:14:05;;;;;;;26.15;18.05;;;;;;;1.76;100.00;103703.91;5256690;28;20029;-81
2023/01/24 04:16:37;;;;;;;23.92;17.42;;;;;;;1.76;100.00;103706.53;5250474;28;20029;-81
2023/01/24 04:19:08;;;;;;;26.13;18.50;;;;;;;1.76;100.00;103707.41;5256717;28;20083;-81
2023/01/24 04:21:39;;;;;;;25.05;17.67;;;;;;;1.76;100.00;103707.41;5244898;28;20041;-81
2023/01/24 04:24:11;;;;;;;25.25;18.63;;;;;;;1.76;100.00;103704.75;5256774;28;20036;-81
2023/01/24 04:26:42;;;;;;;26.25;18.33;;;;;;;1.73;100.00;103711.81;5256294;28;20042;-81
2023/01/24 04:29:13;;;;;;;23.90;17.30;;;;;;;1.74;100.00;103714.44;5240834;28;20049;-81
2023/01/24 04:31:45;;;;;;;25.27;18.67;;;;;;;1.69;100.00;103706.56;5236318;28;20087;-81
2023/01/24 04:34:16;;;;;;;23.88;17.80;;;;;;;1.70;100.00;103705.69;5255533;28;20032;-81
2023/01/24 04:36:47;;;;;;;23.58;17.83;;;;;;;1.72;100.00;103704.78;5242029;28;20061;-82
2023/01/24 04:39:19;;;;;;;25.60;18.45;;;;;;;1.70;100.00;103712.69;5255446;28;20030;-81
2023/01/24 04:41:50;;;;;;;23.65;18.45;;;;;;;1.69;100.00;103709.22;5255454;28;20025;-81
2023/01/24 04:44:21;;;;;;;25.13;18.35;;;;;;;1.69;100.00;103713.59;5254644;28;20030;-81
2023/01/24 04:46:53;;;;;;;25.45;18.40;;;;;;;1.70;100.00;103708.34;5255587;28;20394;-81
2023/01/24 04:49:24;;;;;;;25.17;17.38;;;;;;;1.68;100.00;103718.00;5256609;28;20439;-81
2023/01/24 04:51:55;;;;;;;27.33;19.33;;;;;;;1.70;100.00;103715.34;5256506;28;20071;-81
2023/01/24 04:54:27;;;;;;;25.88;19.10;;;;;;;1.70;100.00;103721.50;5257198;28;20097;-81
2023/01/24 04:56:58;;;;;;;24.23;18.83;;;;;;;1.66;100.00;103726.78;5256573;28;20478;-81
2023/01/24 04:59:29;;;;;;;25.42;18.98;;;;;;;1.63;100.00;103719.81;5256086;28;20676;-81
2023/01/24 05:02:01;;;;;;;25.75;19.25;;;;;;;1.66;100.00;103713.63;5254183;28;27449;-81
2023/01/24 05:04:32;;;;;;;25.52;18.85;;;;;;;1.67;100.00;103713.63;5256111;28;20025;-81
2023/01/24 05:07:03;;;;;;;23.75;18.10;;;;;;;1.68;100.00;103711.84;5256179;28;20104;-82
2023/01/24 05:09:34;;;;;;;24.45;18.23;;;;;;;1.64;100.00;103704.88;5240967;28;20037;-81
2023/01/24 05:12:06;;;;;;;24.10;18.23;;;;;;;1.71;100.00;103714.47;5255498;28;20030;-82
2023/01/24 05:14:37;;;;;;;26.27;19.75;;;;;;;1.66;100.00;103708.38;5257072;28;20512;-80
2023/01/24 05:17:09;;;;;;;23.88;18.35;;;;;;;1.62;100.00;103718.03;5255618;28;20596;-81
2023/01/24 05:19:40;;;;;;;24.70;18.02;;;;;;;1.61;100.00;103721.56;5256088;28;20029;-82
2023/01/24 05:22:11;;;;;;;23.88;18.25;;;;;;;1.57;100.00;103719.84;5232607;28;20526;-81
2023/01/24 05:24:42;;;;;;;24.25;18.08;;;;;;;1.58;100.00;103721.59;5250704;28;20088;-81
2023/01/24 05:27:14;;;;;;;23.55;17.75;;;;;;;1.61;100.00;103729.44;5238572;28;20038;-82
2023/01/24 05:29:45;;;;;;;26.42;18.35;;;;;;;1.62;100.00;103718.03;5252242;28;20120;-80
2023/01/24 05:32:16;;;;;;;25.10;18.88;;;;;;;1.61;100.00;103723.31;5236166;28;20128;-81
2023/01/24 05:34:48;;;;;;;24.60;17.88;;;;;;;1.62;100.00;103727.72;5253899;28;20084;-81
2023/01/24 05:37:19;;;;;;;25.27;18.63;;;;;;;1.63;100.00;103725.06;5255473;28;20076;-80
2023/01/24 05:39:50;;;;;;;24.13;18.48;;;;;;;1.58;100.00;103726.88;5253234;28;20515;-81
2023/01/24 05:42:21;;;;;;;23.65;17.40;;;;;;;1.63;100.00;103726.81;5256166;28;20014;-81
2023/01/24 05:44:53;;;;;;;25.45;18.35;;;;;;;1.57;100.00;103737.41;5256584;28;20017;-81
2023/01/24 05:47:24;;;;;;;23.23;17.17;;;;;;;1.56;100.00;103727.75;5257768;28;20060;-80
2023/01/24 05:49:55;;;;;;;22.45;18.17;;;;;;;1.57;100.00;103735.63;5255105;28;20028;-80
2023/01/24 05:52:27;;;;;;;26.88;19.15;;;;;;;1.57;100.00;103732.13;5254858;28;20036;-80
2023/01/24 05:54:58;;;;;;;24.08;16.75;;;;;;;1.60;100.00;103738.25;5257042;28;20038;-81
2023/01/24 05:57:30;;;;;;;23.27;17.02;;;;;;;1.58;100.00;103747.91;5256710;28;20026;-80
2023/01/24 06:00:02;;;;;;;24.00;17.48;;;;;;;1.60;100.00;103753.16;5254379;28;20029;-81
2023/01/24 06:02:33;;;;;;;23.90;17.58;;;;;;;1.56;100.00;103749.69;5256540;28;20040;-81
2023/01/24 06:05:05;;;;;;;21.90;17.05;;;;;;;1.57;100.00;103754.06;5253733;28;21426;-81
2023/01/24 06:07:37;;;;;;;23.02;16.92;;;;;;;1.56;100.00;103762.84;5253776;28;22105;-81
2023/01/24 06:10:09;;;;;;;21.27;15.63;;;;;;;1.58;100.00;103753.19;5255608;28;20124;-82
2023/01/24 06:12:40;;;;;;;19.40;15.23;;;;;;;1.77;100.00;103760.91;5251976;28;20067;-81
2023/01/24 06:15:11;;;;;;;21.60;15.63;;;;;;;1.82;100.00;103760.00;5254570;28;20455;-81
2023/01/24 06:17:42;;;;;;;24.38;18.23;;;;;;;1.74;100.00;103759.19;5257916;28;20030;-81
2023/01/24 06:20:14;;;;;;;22.85;17.65;;;;;;;1.84;100.00;103771.38;5258673;28;20025;-80
2023/01/24 06:22:52;;;;;;;24.67;18.20;;;;;;;1.89;100.00;103763.41;5264868;28;20041;-80
2023/01/24 06:25:26;;;;;;;25.83;17.85;;;;;;;1.97;100.00;103756.31;5265056;28;20029;-80
2023/01/24 06:27:58;;;;;;;25.17;18.70;;;;;;;1.93;100.00;103759.00;5270576;28;20033;-82
2023/01/24 06:30:29;;;;;;;22.38;16.65;;;;;;;1.92;100.00;103771.28;5266029;28;20378;-79
2023/01/24 06:33:45;;;;;;;23.80;17.75;;;;;;;1.85;100.00;103762.56;5262972;28;20021;-80
2023/01/24 06:36:39;;;;;;;23.65;17.42;;;;;;;1.68;100.00;103778.53;5256759;28;20033;-80
2023/01/24 06:39:15;;;;;;;22.88;16.85;;;;;;;1.60;100.00;103774.22;5252320;28;20064;-80
2023/01/24 06:41:48;;;;;;;22.17;17.35;;;;;;;1.57;100.00;103776.88;5255281;28;20428;-80
2023/01/24 06:44:19;;;;;;;24.73;17.15;;;;;;;1.58;100.00;103775.97;5255572;28;20076;-81
2023/01/24 06:46:51;;;;;;;21.02;16.27;;;;;;;1.56;100.00;103785.63;5252044;28;20402;-80
2023/01/24 06:49:22;;;;;;;25.30;18.63;;;;;;;1.50;100.00;103789.19;5252003;28;20033;-81
2023/01/24 06:51:53;;;;;;;23.75;17.17;;;;;;;1.47;100.00;103781.31;5257369;28;20474;-81
2023/01/24 06:54:25;;;;;;;25.45;18.13;;;;;;;1.44;100.00;103784.00;5257028;28;20080;-81
2023/01/24 06:56:56;;;;;;;24.92;18.95;;;;;;;1.43;100.00;103779.59;5254544;28;20037;-80
2023/01/24 06:59:27;;;;;;;26.17;18.98;;;;;;;1.43;100.00;103776.97;5256429;28;20036;-80
2023/01/24 07:01:59;;;;;;;24.23;18.92;;;;;;;1.41;100.00;103771.72;5255844;28;20037;-81
2023/01/24 07:04:30;;;;;;;24.52;17.42;;;;;;;1.42;100.00;103780.47;5256943;28;20026;-81
2023/01/24 07:07:03;;;;;;;21.65;17.05;;;;;;;1.42;100.00;103777.84;5251840;28;20044;-81
2023/01/24 07:09:34;;;;;;;25.13;19.30;;;;;;;1.40;100.00;103774.34;5254022;28;20429;-81
2023/01/24 07:12:05;;;;;;;25.75;19.75;;;;;;;1.38;100.00;103782.25;5255144;28;20033;-81
2023/01/24 07:14:37;;;;;;;27.60;19.40;;;;;;;1.42;100.00;103786.63;5257528;28;20044;-81
2023/01/24 07:17:08;;;;;;;25.65;19.60;;;;;;;1.40;100.00;103793.63;5257742;28;20094;-81
2023/01/24 07:19:40;;;;;;;25.13;18.95;;;;;;;1.35;100.00;103790.19;5259260;28;20124;-81
2023/01/24 07:22:12;;;;;;;25.63;20.27;;;;;;;1.35;100.00;103803.34;5257539;28;20085;-82
2023/01/24 07:24:44;;;;;;;23.75;17.67;;;;;;;1.34;100.00;103813.88;5259582;28;20026;-81
2023/01/24 07:27:16;;;;;;;24.00;18.63;;;;;;;1.30;100.00;103807.75;5257819;28;20025;-82
2023/01/24 07:29:47;;;;;;;24.70;17.92;;;;;;;1.26;100.00;103814.78;5257982;28;20030;-81
2023/01/24 07:32:18;;;;;;;24.48;17.92;;;;;;;1.29;100.00;103811.25;5257744;28;20451;-81
2023/01/24 07:34:50;;;;;;;23.98;18.45;;;;;;;1.29;100.00;103816.50;5258998;28;20053;-82
2023/01/24 07:37:23;;;;;;;24.10;17.80;;;;;;;1.29;100.00;103821.78;5257780;28;20037;-81
2023/01/24 07:39:54;;;;;;;25.08;18.65;;;;;;;1.29;100.00;103814.75;5258318;28;20037;-82
2023/01/24 07:42:25;;;;;;;22.98;18.50;;;;;;;1.29;100.00;103822.63;5257466;28;20033;-82
2023/01/24 07:44:56;;;;;;;25.63;18.13;;;;;;;1.34;100.00;103825.25;5257993;28;20041;-81
2023/01/24 07:47:28;;;;;;;24.05;18.02;;;;;;;1.31;100.00;103826.16;5245198;28;21171;-81
2023/01/24 07:49:59;;;;;;;25.35;18.10;;;;;;;1.31;100.00;103823.53;5245218;28;20107;-81
2023/01/24 07:52:30;;;;;;;23.38;17.10;;;;;;;1.30;100.00;103826.16;5257166;28;20025;-81
2023/01/24 07:55:02;;;;;;;23.92;17.92;;;;;;;1.29;100.00;103835.78;5256708;28;20017;-81
2023/01/24 07:57:33;;;;;;;22.20;17.17;;;;;;;1.25;100.00;103831.44;5259864;28;20398;-81
2023/01/24 08:00:05;;;;;;;25.15;17.20;;;;;;;1.26;100.00;103841.09;5258158;28;20367;-81
2023/01/24 08:02:37;;;;;;;24.08;18.10;;;;;;;1.25;100.00;103841.97;5244402;28;20183;-80
2023/01/24 08:05:09;;;;;;;23.73;18.77;;;;;;;1.25;100.00;103841.97;5246904;28;20031;-82
2023/01/24 08:07:40;;;;;;;24.85;18.50;;;;;;;1.27;100.00;103841.94;5260615;28;20095;-81
2023/01/24 08:10:11;;;;;;;23.65;17.77;;;;;;;1.30;100.00;103839.31;5258226;28;20022;-81
2023/01/24 08:12:42;;;;;;;24.80;18.50;;;;;;;1.29;100.00;103841.03;5256751;28;20029;-80
2023/01/24 08:15:14;;;;;;;27.65;20.25;;;;;;;1.30;100.00;103836.69;5258952;28;20051;-81
2023/01/24 08:17:45;;;;;;;24.83;19.08;;;;;;;1.32;100.00;103835.78;5260318;28;21179;-81
2023/01/24 08:20:17;;;;;;;26.77;20.10;;;;;;;1.34;100.00;103834.91;5257440;28;20335;-81
2023/01/24 08:22:53;;;;;;;25.80;18.98;;;;;;;1.36;100.00;103838.41;5256383;28;20042;-82
2023/01/24 08:25:26;;;;;;;26.17;19.73;;;;;;;1.33;100.00;103836.63;5259870;28;20033;-82
2023/01/24 08:27:57;;;;;;;26.45;19.65;;;;;;;1.36;100.00;103841.03;5260252;28;20051;-82
2023/01/24 08:30:32;;;;;;;26.88;19.77;;;;;;;1.35;100.00;103836.63;5258053;28;20029;-82
2023/01/24 08:33:05;;;;;;;27.40;19.17;;;;;;;1.39;100.00;103844.50;5246188;28;20109;-82
2023/01/24 08:35:37;;;;;;;26.92;18.88;;;;;;;1.35;100.00;103844.53;5260194;28;20088;-81
2023/01/24 08:38:09;;;;;;;24.55;19.38;;;;;;;1.39;100.00;103855.03;5258755;28;20112;-81
2023/01/24 08:40:41;;;;;;;26.42;19.80;;;;;;;1.40;100.00;103859.38;5259974;28;20060;-81
2023/01/24 08:43:12;;;;;;;23.92;17.75;;;;;;;1.35;100.00;103857.69;5256758;28;20124;-81
2023/01/24 08:45:44;;;;;;;26.38;19.45;;;;;;;1.36;100.00;103862.94;5252599;28;20033;-81
2023/01/24 08:48:16;;;;;;;25.02;18.35;;;;;;;1.38;100.00;103855.91;5242515;28;20014;-81
2023/01/24 08:50:47;;;;;;;24.42;16.95;;;;;;;1.35;100.00;103863.84;5257643;28;20037;-81
2023/01/24 08:53:19;;;;;;;24.35;17.60;;;;;;;1.37;100.00;103867.31;5258673;28;20386;-81
2023/01/24 08:55:51;;;;;;;25.33;18.27;;;;;;;1.38;100.00;103869.06;5259111;28;20029;-80
2023/01/24 08:58:22;;;;;;;26.30;18.75;;;;;;;1.34;100.00;103872.59;5253248;28;20044;-81
2023/01/24 09:00:54;;;;;;;23.85;17.17;;;;;;;1.38;100.00;103869.06;5264782;28;20033;-81
2023/01/24 09:03:26;;;;;;;23.83;17.83;;;;;;;1.40;100.00;103875.16;5262192;28;20032;-81
2023/01/24 09:05:58;;;;;;;26.98;19.55;;;;;;;1.40;100.00;103871.69;5256052;28;20076;-81
2023/01/24 09:08:30;;;;;;;26.25;18.90;;;;;;;1.40;100.00;103879.56;5256937;28;20033;-81
2023/01/24 09:11:01;;;;;;;23.63;17.17;;;;;;;1.39;100.00;103877.84;5258180;28;20659;-80
2023/01/24 09:13:33;;;;;;;24.98;17.08;;;;;;;1.38;100.00;103870.81;5254088;28;20022;-80
2023/01/24 09:16:04;;;;;;;25.55;18.38;;;;;;;1.41;100.00;103874.31;5256025;28;20030;-80
2023/01/24 09:18:36;;;;;;;24.05;18.10;;;;;;;1.41;100.00;103869.03;5262753;28;20022;-80
2023/01/24 09:21:07;;;;;;;25.95;18.33;;;;;;;1.45;100.00;103875.16;5270621;28;20144;-80
2023/01/24 09:23:38;;;;;;;23.83;17.58;;;;;;;1.46;100.00;103874.28;5268947;28;20036;-80
2023/01/24 09:26:10;;;;;;;24.48;17.35;;;;;;;1.47;100.00;103876.91;5266017;28;20029;-80
2023/01/24 09:28:41;;;;;;;25.20;18.75;;;;;;;1.47;100.00;103874.28;5265156;28;20018;-80
2023/01/24 09:31:12;;;;;;;27.55;18.15;;;;;;;1.48;100.00;103872.50;5269542;28;20033;-80
2023/01/24 09:33:44;;;;;;;24.23;17.25;;;;;;;1.60;100.00;103869.81;5263309;28;20394;-80
2023/01/24 09:36:16;;;;;;;23.33;16.90;;;;;;;1.62;100.00;103882.97;5262613;28;20068;-80
2023/01/24 09:38:47;;;;;;;25.33;18.48;;;;;;;1.57;100.00;103882.13;5265130;28;20030;-81
2023/01/24 09:41:31;;;;;;;26.08;18.88;;;;;;;1.64;100.00;103876.78;5264690;28;20033;-80
2023/01/24 09:44:07;;;;;;;23.20;16.85;;;;;;;1.66;100.00;103872.38;5246372;28;20540;-80
2023/01/24 09:46:43;;;;;;;26.70;18.05;;;;;;;1.68;100.00;103878.53;5264376;28;20371;-80
2023/01/24 09:49:22;;;;;;;24.95;17.60;;;;;;;1.70;100.00;103882.03;5261484;28;20036;-81
2023/01/24 09:51:54;;;;;;;25.40;17.75;;;;;;;1.70;100.00;103882.03;5264345;28;20030;-80
2023/01/24 09:54:34;;;;;;;22.23;15.98;;;;;;;1.80;100.00;103884.59;5265387;28;20081;-80
2023/01/24 09:57:17;;;;;;;24.27;17.10;;;;;;;1.78;100.00;103884.59;5268263;28;20022;-79
2023/01/24 09:59:52;;;;;;;22.58;16.48;;;;;;;1.82;100.00;103896.88;5270910;28;20022;-80
2023/01/24 10:02:27;;;;;;;24.30;17.30;;;;;;;1.85;100.00;103899.44;5269474;28;20025;-78
2023/01/24 10:04:59;;;;;;;25.73;18.20;;;;;;;1.83;100.00;103889.84;5266527;28;20038;-79
2023/01/24 10:07:49;;;;;;;21.80;16.05;;;;;;;1.89;100.00;103897.66;5264878;28;20041;-80
2023/01/24 10:10:20;;;;;;;23.70;16.65;;;;;;;1.80;100.00;103893.34;5264617;28;20068;-81
2023/01/24 10:13:08;;;;;;;21.75;15.98;;;;;;;1.82;100.00;103893.34;5263878;28;20115;-80
2023/01/24 10:15:50;;;;;;;21.10;14.93;;;;;;;1.98;100.00;103895.00;5254474;28;20165;-80
2023/01/24 10:18:55;;;;;;;21.38;16.45;;;;;;;2.00;100.00;103894.94;5261949;28;20382;-80
2023/01/24 10:21:29;;;;;;;19.75;14.25;;;;;;;1.93;100.00;103888.88;5244696;28;20132;-80
2023/01/24 10:24:09;;;;;;;23.25;15.82;;;;;;;1.95;100.00;103892.38;5263264;28;20030;-80
2023/01/24 10:26:49;;;;;;;19.88;15.02;;;;;;;1.96;100.00;103899.38;5263298;28;20129;-80
2023/01/24 10:29:24;;;;;;;20.08;15.38;;;;;;;1.94;100.00;103900.28;5260765;28;20027;-80
2023/01/24 10:32:03;;;;;;;22.55;15.68;;;;;;;1.95;100.00;103899.41;5259871;28;20030;-80
2023/01/24 10:34:34;;;;;;;19.38;14.75;;;;;;;1.93;100.00;103898.53;5260554;28;20053;-80
2023/01/24 10:37:17;;;;;;;18.38;14.35;;;;;;;2.01;100.00;103899.34;5245252;28;20026;-80
2023/01/24 10:39:48;;;;;;;19.67;14.15;;;;;;;1.99;100.00;103895.84;5261892;28;20029;-80
2023/01/24 10:42:26;;;;;;;17.45;13.15;;;;;;;2.02;100.00;103891.44;5263709;28;20382;-80
2023/01/24 10:45:38;;;;;;;18.48;14.00;;;;;;;2.13;100.00;103899.25;5263770;28;20051;-80
2023/01/24 10:48:27;;;;;;;18.90;13.45;;;;;;;2.23;100.00;103895.66;5241575;28;20030;-81
2023/01/24 10:51:11;;;;;;;19.33;14.48;;;;;;;2.27;100.00;103891.22;5245180;28;20045;-81
2023/01/24 10:53:43;;;;;;;20.42;14.05;;;;;;;2.17;100.00;103887.78;5261604;28;20056;-81
2023/01/24 10:56:17;;;;;;;17.80;13.32;;;;;;;2.24;100.00;103892.13;5263407;28;20053;-81
2023/01/24 10:59:00;;;;;;;20.55;14.57;;;;;;;2.22;100.00;103890.38;5262891;28;20033;-81
2023/01/24 11:01:35;;;;;;;18.00;13.80;;;;;;;2.12;100.00;103894.84;5269542;28;20025;-81
2023/01/24 11:04:34;;;;;;;17.90;13.30;;;;;;;2.30;100.00;103891.22;5281068;28;20516;-81
2023/01/24 11:07:06;;;;;;;19.67;14.30;;;;;;;2.22;100.00;103885.97;5260018;28;20049;-81
2023/01/24 11:09:39;;;;;;;17.45;13.00;;;;;;;2.20;100.00;103890.41;5261576;28;20644;-81
2023/01/24 11:12:13;;;;;;;18.27;13.25;;;;;;;2.19;100.00;103877.25;5261624;28;28363;-81
2023/01/24 11:14:48;;;;;;;16.92;12.65;;;;;;;2.23;100.00;103885.13;5252170;28;20151;-81
2023/01/24 11:17:35;;;;;;;16.42;13.40;;;;;;;2.26;100.00;103882.47;5261217;28;20022;-81
2023/01/24 11:20:22;;;;;;;;;;;;;;;2.43;100.00;103877.00;5262253;28;20032;-81
2023/01/24 11:23:11;;;;;;;18.05;13.35;;;;;;;2.32;100.00;103865.72;5258590;28;19987;-81
2023/01/24 11:25:57;;;;;;;15.55;11.82;;;;;;;2.27;100.00;103867.53;5259736;28;20030;-81
2023/01/24 11:28:31;;;;;;;20.10;13.45;;;;;;;2.17;100.00;103865.84;5243334;28;20116;-81
2023/01/24 11:31:06;;;;;;;17.23;12.38;;;;;;;2.25;100.00;103866.66;5267037;28;20516;-81
2023/01/24 11:33:54;;;;;;;17.95;13.52;;;;;;;2.31;100.00;103858.69;5272551;28;20037;-80
2023/01/24 11:36:43;;;;;;;16.20;12.48;;;;;;;2.29;100.00;103859.59;5269810;28;20026;-81
2023/01/24 11:39:39;;;;;;;16.08;12.98;;;;;;;2.35;100.00;103857.78;5264576;28;20355;-81
2023/01/24 11:42:28;;;;;;;17.42;12.73;;;;;;;2.30;100.00;103850.78;5261724;28;20037;-81
2023/01/24 11:45:20;;;;;;;18.27;13.18;;;;;;;2.32;100.00;103852.53;5262151;28;20049;-81
2023/01/24 11:48:07;;;;;;;16.50;12.32;;;;;;;2.37;100.00;103849.88;5260798;28;20060;-81
2023/01/24 11:51:01;;;;;;;17.55;12.95;;;;;;;2.38;100.00;103846.34;5272112;28;20021;-81
2023/01/24 11:53:49;;;;;;;18.25;12.90;;;;;;;2.34;100.00;103853.41;5261499;28;20025;-81
2023/01/24 11:56:40;;;;;;;16.40;12.52;;;;;;;2.48;100.00;103847.13;5261738;28;20493;-81
2023/01/24 11:59:32;;;;;;;17.20;12.65;;;;;;;2.41;100.00;103841.91;5260963;28;20036;-81
2023/01/24 12:02:28;;;;;;;18.17;13.18;;;;;;;2.44;100.00;103841.00;5261214;28;20034;-81
2023/01/24 12:05:22;;;;;;;17.70;12.95;;;;;;;2.50;100.00;103835.66;5261460;28;20030;-81
2023/01/24 12:07:53;;;;;;;17.40;13.07;;;;;;;2.44;100.00;103833.13;5243315;28;20063;-81
2023/01/24 12:10:31;;;;;;;18.55;14.07;;;;;;;2.34;100.00;103828.81;5244812;28;20025;-81
2023/01/24 12:13:20;;;;;;;17.77;12.85;;;;;;;2.37;100.00;103824.41;5261864;28;20048;-81
2023/01/24 12:15:51;;;;;;;16.50;12.35;;;;;;;2.33;100.00;103825.31;5261861;28;20094;-81
2023/01/24 12:18:34;;;;;;;17.25;12.82;;;;;;;2.37;100.00;103818.25;5261764;28;20029;-81
2023/01/24 12:21:10;;;;;;;18.90;12.93;;;;;;;2.38;100.00;103810.31;5259454;28;20028;-81
2023/01/24 12:23:56;;;;;;;17.75;13.52;;;;;;;2.41;100.00;103812.06;5260221;28;20068;-81